< Typhoon 196227 1962 Season Typhoon 196229 >
Typhoon 196228 (KAREN)
General InformationTrack Information on Google Maps || Disaster Info.ResourceGoogle EarthGE AnimationAtom FeedGeoJSON
Detalied Best Track (Time Zone = UTC)
Year Month Day Hour Lat. Long. Pressure (hPa) Wind (kt) Class Image
1962 11 7 06 6.0 154.0 1002 0 2 No
1962 11 7 12 6.8 153.5 1000 0 2 No
1962 11 7 18 7.6 152.9 1000 0 9 No
1962 11 8 00 8.5 152.5 990 0 9 No
1962 11 8 06 9.1 152.4 980 0 9 No
1962 11 8 12 9.6 152.6 970 0 9 No
1962 11 8 18 10.0 152.9 960 0 9 No
1962 11 9 00 10.5 153.1 920 0 9 No
1962 11 9 06 10.9 153.3 930 0 9 No
1962 11 9 12 11.4 153.4 940 0 9 No
1962 11 9 18 11.6 153.4 950 0 9 No
1962 11 10 00 11.8 153.1 960 0 9 No
1962 11 10 06 12.2 151.9 920 0 9 No
1962 11 10 12 12.4 150.9 920 0 9 No
1962 11 10 18 12.6 149.8 920 0 9 No
1962 11 11 00 13.0 148.2 920 0 9 No
1962 11 11 06 13.5 146.7 920 0 9 No
1962 11 11 12 13.6 144.8 920 0 9 No
1962 11 11 18 13.6 143.1 920 0 9 No
1962 11 12 00 13.5 142.0 920 0 9 No
1962 11 12 06 14.5 140.6 920 0 9 No
1962 11 12 12 15.0 138.5 920 0 9 No
1962 11 12 18 15.4 137.2 920 0 9 No
1962 11 13 00 15.7 135.3 900 0 9 No
1962 11 13 06 16.2 133.8 900 0 9 No
1962 11 13 12 16.8 132.5 900 0 9 No
1962 11 13 18 17.7 131.3 900 0 9 No
1962 11 14 00 18.4 130.0 910 0 9 No
1962 11 14 06 19.2 129.0 915 0 9 No
1962 11 14 12 20.0 128.7 915 0 9 No
1962 11 14 18 20.8 128.5 915 0 9 No
1962 11 15 00 21.9 128.5 915 0 9 No
1962 11 15 06 23.5 128.8 935 0 9 No
1962 11 15 12 24.8 129.8 940 0 9 No
1962 11 15 18 26.5 131.2 945 0 9 No
1962 11 16 00 28.2 133.1 955 0 9 No
1962 11 16 06 29.7 135.8 960 0 9 No
1962 11 16 12 30.6 139.0 960 0 9 No
1962 11 16 18 31.2 142.5 960 0 9 No
1962 11 17 00 32.0 146.3 970 0 9 No
1962 11 17 06 32.6 149.7 980 0 9 No
1962 11 17 12 33.4 153.6 985 0 9 No
1962 11 17 18 34.0 160.0 986 0 6 No
1962 11 18 00 34.0 167.0 992 0 6 No
1962 11 18 06 34.0 174.0 994 0 6 No
1962 11 18 12 35.0 182.0 994 0 6 No
Japan Meteorological Agency Best Track Data | Correction Date : 1991-07-16
< Typhoon 196227 1962 Season Typhoon 196229 >

Help